Time;durP1;ratioP1;P1;durP2;ratioP2;P2;SDS_P1;SDS_P2;PMS_P1;PMS_P2;Temp;Humidity;BMP_temperature;BMP_pressure;BME280_temperature;BME280_humidity;BME280_pressure;Samples;Min_cycle;Max_cycle;Signal;HPM_P1;HPM_P2
2021/08/03 00:01:23;;;;;;;2.13;1.10;;;;;;;13.16;85.54;101552.31;5032547;28;20136;-51
2021/08/03 00:03:57;;;;;;;4.32;1.35;;;;;;;13.13;85.63;101557.66;5033906;28;20042;-51
2021/08/03 00:06:32;;;;;;;5.68;1.00;;;;;;;13.11;85.67;101558.78;5033575;28;20045;-47
2021/08/03 00:09:00;;;;;;;2.50;1.00;;;;;;;13.11;85.63;101557.94;5034052;28;21008;-45
2021/08/03 00:11:29;;;;;;;3.00;1.40;;;;;;;13.13;85.72;101561.28;5033114;28;20291;-50
2021/08/03 00:13:58;;;;;;;2.40;1.58;;;;;;;13.16;86.12;101563.53;5033861;28;20069;-48
2021/08/03 00:16:29;;;;;;;3.10;1.50;;;;;;;13.18;86.07;101550.06;5030168;28;20187;-48
2021/08/03 00:18:57;;;;;;;2.53;1.40;;;;;;;13.21;86.25;101552.22;5033298;28;20053;-47
2021/08/03 00:21:25;;;;;;;2.00;1.08;;;;;;;13.23;86.54;101549.13;5033083;28;20426;-49
2021/08/03 00:23:55;;;;;;;2.45;1.20;;;;;;;13.23;86.15;101547.16;5032396;28;20056;-47
2021/08/03 00:26:23;;;;;;;4.07;1.30;;;;;;;13.24;86.33;101548.84;5032496;28;20077;-50
2021/08/03 00:28:52;;;;;;;1.92;1.00;;;;;;;13.24;86.36;101551.63;5033487;28;20444;-50
2021/08/03 00:31:21;;;;;;;2.10;0.95;;;;;;;13.27;86.39;101553.00;5033349;28;20038;-54
2021/08/03 00:33:53;;;;;;;2.33;1.00;;;;;;;13.28;86.49;101549.06;5029073;28;20041;-52
2021/08/03 00:36:25;;;;;;;4.63;1.00;;;;;;;13.31;86.69;101554.09;5039027;28;20045;-47
2021/08/03 00:38:54;;;;;;;2.03;0.77;;;;;;;13.34;86.84;101551.50;5032052;28;20060;-49
2021/08/03 00:41:28;;;;;;;4.22;1.08;;;;;;;13.38;86.89;101541.38;5032735;28;20085;-48
2021/08/03 00:43:57;;;;;;;2.22;1.10;;;;;;;13.42;86.92;101550.81;5032152;28;20061;-49
2021/08/03 00:46:25;;;;;;;4.18;1.40;;;;;;;13.47;87.10;101540.69;5032571;28;20045;-47
2021/08/03 00:48:55;;;;;;;5.47;1.17;;;;;;;13.50;87.01;101543.72;5033167;28;20404;-51
2021/08/03 00:51:23;;;;;;;2.63;1.38;;;;;;;13.54;86.84;101535.53;5033008;28;20053;-47
2021/08/03 00:53:54;;;;;;;2.85;1.20;;;;;;;13.55;86.93;101542.81;5032364;28;20518;-50
2021/08/03 00:56:22;;;;;;;2.75;1.27;;;;;;;13.58;86.99;101537.44;5032999;28;20055;-49
2021/08/03 00:58:50;;;;;;;2.67;1.50;;;;;;;13.63;86.89;101539.31;5032715;28;20563;-48
2021/08/03 01:01:19;;;;;;;2.90;1.13;;;;;;;13.67;86.89;101535.59;5031016;28;20049;-50
2021/08/03 01:03:47;;;;;;;3.28;1.50;;;;;;;13.71;86.66;101541.44;5032755;28;20095;-46
2021/08/03 01:06:24;;;;;;;3.15;1.40;;;;;;;13.72;86.61;101537.50;5031285;28;20140;-52
2021/08/03 01:09:01;;;;;;;4.45;1.40;;;;;;;13.74;86.88;101535.25;5032409;28;20120;-51
2021/08/03 01:11:37;;;;;;;2.42;1.30;;;;;;;13.76;86.94;101538.56;5032593;28;20168;-51
2021/08/03 01:14:11;;;;;;;3.03;1.30;;;;;;;13.80;87.09;101537.63;5032669;28;20045;-50
2021/08/03 01:16:47;;;;;;;2.42;1.42;;;;;;;13.83;87.16;101527.78;5030530;28;20123;-47
2021/08/03 01:19:23;;;;;;;2.40;1.42;;;;;;;13.84;87.35;101523.00;5032889;28;20058;-47
2021/08/03 01:22:09;;;;;;;3.22;1.60;;;;;;;13.86;87.46;101527.19;5030746;28;20077;-47
2021/08/03 01:25:00;;;;;;;6.35;1.45;;;;;;;13.87;87.29;101528.84;5032541;28;20080;-48
2021/08/03 01:27:46;;;;;;;3.30;1.35;;;;;;;13.87;87.59;101523.22;5031266;28;20078;-49
2021/08/03 01:30:15;;;;;;;3.00;1.20;;;;;;;13.89;87.62;101526.56;5031911;28;20061;-50
2021/08/03 01:32:45;;;;;;;4.75;1.20;;;;;;;13.93;87.49;101513.59;5032202;28;20053;-47
2021/08/03 01:35:14;;;;;;;1.80;1.00;;;;;;;13.97;87.50;101519.44;5032166;28;20103;-51
2021/08/03 01:37:43;;;;;;;1.67;0.80;;;;;;;14.00;87.58;101518.81;5031417;28;20053;-53
2021/08/03 01:40:14;;;;;;;2.38;0.82;;;;;;;14.03;87.61;101519.03;5031006;28;20047;-51
2021/08/03 01:42:46;;;;;;;1.80;1.00;;;;;;;14.07;87.71;101517.28;5031661;28;20077;-49
2021/08/03 01:45:18;;;;;;;3.13;1.00;;;;;;;14.10;87.96;101518.66;5030288;28;20061;-50
2021/08/03 01:47:46;;;;;;;4.25;1.45;;;;;;;14.12;88.00;101516.38;5031924;28;20559;-50
2021/08/03 01:50:16;;;;;;;3.50;1.00;;;;;;;14.13;88.41;101518.03;5029918;28;20162;-49
2021/08/03 01:52:55;;;;;;;2.85;1.15;;;;;;;14.13;88.48;101507.66;5030991;28;20786;-50
2021/08/03 01:55:29;;;;;;;2.55;1.00;;;;;;;14.14;88.79;101517.72;5031862;28;20103;-49
2021/08/03 01:58:03;;;;;;;3.17;1.20;;;;;;;14.17;88.77;101512.66;5030057;28;20057;-47
2021/08/03 02:00:42;;;;;;;2.70;0.88;;;;;;;14.17;89.16;101518.25;5030318;28;20045;-49
2021/08/03 02:03:16;;;;;;;2.05;0.70;;;;;;;14.18;88.88;101511.50;5031927;28;20077;-49
2021/08/03 02:05:46;;;;;;;2.63;1.10;;;;;;;14.20;89.22;101509.19;5029716;28;20095;-54
2021/08/03 02:08:24;;;;;;;2.10;0.90;;;;;;;14.21;89.23;101502.44;5031558;28;20056;-52
2021/08/03 02:11:06;;;;;;;2.33;1.13;;;;;;;14.21;89.43;101502.44;5030893;28;20045;-51
2021/08/03 02:13:35;;;;;;;3.55;1.10;;;;;;;14.21;89.37;101508.06;5031633;28;20124;-51
2021/08/03 02:16:06;;;;;;;5.28;1.20;;;;;;;14.21;89.48;101508.91;5030053;28;20096;-55
2021/08/03 02:18:35;;;;;;;2.05;0.98;;;;;;;14.21;89.39;101503.28;5031128;28;20052;-50
2021/08/03 02:21:06;;;;;;;2.65;1.30;;;;;;;14.20;89.79;101507.22;5030250;28;20049;-48
2021/08/03 02:23:34;;;;;;;3.40;1.33;;;;;;;14.21;89.48;101510.88;5031037;28;20111;-49
2021/08/03 02:26:07;;;;;;;3.40;1.20;;;;;;;14.18;89.51;101514.31;5030648;28;20476;-52
2021/08/03 02:28:36;;;;;;;2.85;1.25;;;;;;;14.18;89.68;101511.50;5031402;28;20054;-48
2021/08/03 02:31:12;;;;;;;2.75;1.08;;;;;;;14.18;89.73;101522.75;5029778;28;20041;-50
2021/08/03 02:33:49;;;;;;;1.88;0.93;;;;;;;14.13;89.85;101516.06;5020879;28;20103;-49
2021/08/03 02:36:21;;;;;;;1.90;1.05;;;;;;;14.07;89.84;101520.09;5031261;28;20191;-50
2021/08/03 02:38:57;;;;;;;2.10;1.00;;;;;;;13.99;89.88;101526.38;5029281;28;20053;-51
2021/08/03 02:41:28;;;;;;;2.63;0.98;;;;;;;13.92;89.93;101517.53;5031750;28;20045;-50
2021/08/03 02:43:57;;;;;;;2.67;1.17;;;;;;;13.87;90.07;101528.00;5029989;28;20049;-53
2021/08/03 02:46:29;;;;;;;2.40;1.13;;;;;;;13.80;90.05;101522.78;5026922;28;20045;-52
2021/08/03 02:49:03;;;;;;;2.53;0.95;;;;;;;13.73;90.01;101522.34;5031214;28;20095;-51
2021/08/03 02:51:32;;;;;;;3.22;1.10;;;;;;;13.65;90.19;101523.84;5030389;28;20055;-49
2021/08/03 02:54:04;;;;;;;2.95;1.00;;;;;;;13.60;90.21;101525.91;5030499;28;20565;-50
2021/08/03 02:56:34;;;;;;;3.40;1.13;;;;;;;13.50;90.05;101515.69;5029224;28;20060;-48
2021/08/03 02:59:06;;;;;;;2.67;1.35;;;;;;;13.42;90.20;101521.94;5031117;28;20060;-50
2021/08/03 03:01:38;;;;;;;2.40;1.08;;;;;;;13.35;90.54;101527.13;5030413;28;20049;-49
2021/08/03 03:04:12;;;;;;;4.63;1.10;;;;;;;13.28;90.59;101524.69;5026408;28;20495;-50
2021/08/03 03:06:41;;;;;;;2.78;0.93;;;;;;;13.23;90.26;101526.72;5029407;28;20107;-49
2021/08/03 03:09:12;;;;;;;2.28;0.98;;;;;;;13.17;90.43;101527.94;5062343;28;20132;-49
2021/08/03 03:11:41;;;;;;;2.53;1.20;;;;;;;13.11;90.53;101522.34;5030531;28;20061;-49
2021/08/03 03:14:12;;;;;;;1.85;0.75;;;;;;;13.05;90.50;101517.09;5028987;28;20055;-49
2021/08/03 03:16:43;;;;;;;2.17;0.90;;;;;;;13.00;90.89;101517.16;5029706;28;20097;-52
2021/08/03 03:19:16;;;;;;;2.67;1.00;;;;;;;12.96;90.68;101518.91;5030746;28;20091;-49
2021/08/03 03:21:47;;;;;;;2.20;1.20;;;;;;;12.89;90.84;101521.25;5029958;28;20058;-49
2021/08/03 03:24:15;;;;;;;2.15;0.80;;;;;;;12.84;91.02;101521.28;5030708;28;20053;-49
2021/08/03 03:26:48;;;;;;;2.20;0.90;;;;;;;12.79;91.13;101518.56;5062473;28;20452;-51
2021/08/03 03:29:18;;;;;;;1.80;0.70;;;;;;;12.72;91.09;101516.94;5028782;28;20046;-49
2021/08/03 03:31:48;;;;;;;1.65;0.80;;;;;;;12.69;91.37;101523.16;5029156;28;20053;-49
2021/08/03 03:34:18;;;;;;;2.08;0.90;;;;;;;12.65;91.25;101521.22;5029077;28;20049;-50
2021/08/03 03:36:49;;;;;;;1.80;0.95;;;;;;;12.61;91.03;101523.78;5030149;28;20050;-49
2021/08/03 03:39:19;;;;;;;3.15;1.10;;;;;;;12.58;91.59;101524.41;5030711;28;20088;-49
2021/08/03 03:41:54;;;;;;;2.28;1.15;;;;;;;12.59;91.78;101523.25;5029276;28;20553;-50
2021/08/03 03:44:22;;;;;;;2.63;1.25;;;;;;;12.61;92.07;101523.78;5029885;28;20045;-52
2021/08/03 03:46:58;;;;;;;3.92;1.65;;;;;;;12.63;92.38;101529.94;5029990;28;20426;-51
2021/08/03 03:49:34;;;;;;;2.75;1.60;;;;;;;12.62;92.33;101519.03;5029939;28;20140;-52
2021/08/03 03:52:05;;;;;;;2.83;1.80;;;;;;;12.61;92.48;101520.97;5030266;28;20049;-50
2021/08/03 03:54:39;;;;;;;2.60;1.40;;;;;;;12.57;92.75;101516.28;5029232;28;20042;-52
2021/08/03 03:57:11;;;;;;;3.60;1.48;;;;;;;12.54;92.88;101519.69;5028239;28;20051;-51
2021/08/03 03:59:46;;;;;;;5.18;1.90;;;;;;;12.52;93.09;101514.38;5030388;28;20140;-52
2021/08/03 04:02:20;;;;;;;3.30;1.67;;;;;;;12.51;93.25;101518.31;5030217;28;20099;-51
2021/08/03 04:04:49;;;;;;;3.60;1.77;;;;;;;12.50;93.14;101511.03;5029820;28;20045;-50
2021/08/03 04:07:17;;;;;;;2.90;1.75;;;;;;;12.46;93.14;101509.13;5030075;28;20036;-49
2021/08/03 04:09:46;;;;;;;3.83;1.70;;;;;;;12.41;93.23;101507.19;5032284;28;20303;-50
2021/08/03 04:12:15;;;;;;;5.13;1.80;;;;;;;12.41;93.35;101498.81;5033446;28;20061;-49
2021/08/03 04:14:45;;;;;;;3.92;2.10;;;;;;;12.39;93.28;101503.84;5033611;28;20053;-49
2021/08/03 04:17:18;;;;;;;;;;;;;;;12.30;93.05;101508.44;5033060;28;20483;-51
2021/08/03 04:19:46;;;;;;;3.42;1.80;;;;;;;12.27;93.59;101503.44;5033694;28;19931;-52
2021/08/03 04:22:14;;;;;;;3.25;2.17;;;;;;;12.27;93.27;101501.47;5033454;28;20080;-50
2021/08/03 04:24:42;;;;;;;2.65;1.55;;;;;;;12.29;93.28;101509.56;5029136;28;20056;-49
2021/08/03 04:27:10;;;;;;;3.28;1.60;;;;;;;12.28;93.12;101508.75;5033997;28;20053;-49
2021/08/03 04:29:37;;;;;;;3.20;1.70;;;;;;;12.30;93.10;101508.44;5033325;28;20445;-52
2021/08/03 04:32:06;;;;;;;2.88;1.77;;;;;;;12.30;92.95;101509.28;5033002;28;20033;-50
2021/08/03 04:34:35;;;;;;;2.17;1.33;;;;;;;12.31;92.75;101499.75;5033211;28;20408;-48
2021/08/03 04:37:03;;;;;;;3.35;1.40;;;;;;;12.33;92.76;101505.06;5033307;28;20573;-51
2021/08/03 04:39:31;;;;;;;2.58;1.35;;;;;;;12.34;92.72;101506.72;5032783;28;20132;-56
2021/08/03 04:41:59;;;;;;;4.07;1.67;;;;;;;12.36;92.67;101510.06;5033119;28;20499;-52
2021/08/03 04:44:27;;;;;;;2.70;1.40;;;;;;;12.35;92.52;101509.25;5033198;28;20041;-52
2021/08/03 04:46:54;;;;;;;3.25;1.30;;;;;;;12.36;92.50;101516.50;5032527;28;20045;-50
2021/08/03 04:49:22;;;;;;;3.40;1.65;;;;;;;12.39;92.53;101509.47;5032792;28;20111;-49
2021/08/03 04:51:52;;;;;;;3.20;1.50;;;;;;;12.40;92.25;101511.97;5033221;28;20046;-48
2021/08/03 04:54:19;;;;;;;2.70;1.48;;;;;;;12.42;92.39;101525.66;5064394;28;20042;-50
2021/08/03 04:56:47;;;;;;;4.60;1.20;;;;;;;12.44;92.17;101512.22;5032809;28;20573;-52
2021/08/03 04:59:15;;;;;;;2.75;1.10;;;;;;;12.46;92.25;101509.13;5032925;28;20138;-53
2021/08/03 05:01:44;;;;;;;2.30;1.00;;;;;;;12.48;92.14;101507.69;5032081;28;20069;-51
2021/08/03 05:04:12;;;;;;;2.40;1.23;;;;;;;12.51;92.24;101511.88;5032865;28;20112;-48
2021/08/03 05:06:40;;;;;;;2.78;1.35;;;;;;;12.54;92.13;101514.09;5032255;28;20562;-49
2021/08/03 05:09:09;;;;;;;2.17;1.23;;;;;;;12.57;92.05;101517.13;5032631;28;20053;-48
2021/08/03 05:11:37;;;;;;;3.75;1.63;;;;;;;12.60;92.11;101515.69;5032234;28;20107;-47
2021/08/03 05:14:05;;;;;;;2.40;1.20;;;;;;;12.64;91.87;101512.00;5032093;28;20454;-48
2021/08/03 05:16:33;;;;;;;2.55;1.40;;;;;;;12.68;91.91;101513.06;5032707;28;20077;-50
2021/08/03 05:19:01;;;;;;;3.13;1.20;;;;;;;12.73;91.87;101515.81;5032094;28;20526;-50
2021/08/03 05:21:28;;;;;;;2.22;1.02;;;;;;;12.79;91.89;101510.97;5031944;28;20064;-49
2021/08/03 05:23:56;;;;;;;3.92;1.30;;;;;;;12.84;91.76;101510.91;5032534;28;20058;-48
2021/08/03 05:26:25;;;;;;;2.90;1.40;;;;;;;12.89;91.71;101504.44;5032004;28;20103;-50
2021/08/03 05:28:53;;;;;;;2.33;1.30;;;;;;;12.93;91.44;101514.75;5031734;28;20065;-49
2021/08/03 05:31:21;;;;;;;2.45;1.20;;;;;;;12.98;91.47;101503.47;5030907;28;20212;-53
2021/08/03 05:33:50;;;;;;;2.50;1.10;;;;;;;13.04;91.02;101509.84;5028404;28;20069;-51
2021/08/03 05:36:17;;;;;;;3.22;1.10;;;;;;;13.11;90.80;101513.13;5031574;28;20057;-51
2021/08/03 05:38:45;;;;;;;2.85;1.10;;;;;;;13.17;90.58;101500.75;5031821;28;20128;-54
2021/08/03 05:41:13;;;;;;;2.60;1.00;;;;;;;13.24;90.33;101503.97;5032042;28;20500;-56
2021/08/03 05:43:42;;;;;;;4.10;1.20;;;;;;;13.31;90.11;101507.25;5031192;28;20123;-51
2021/08/03 05:46:10;;;;;;;2.03;0.82;;;;;;;13.39;90.06;101505.72;5031980;28;20496;-53
2021/08/03 05:48:38;;;;;;;2.80;1.00;;;;;;;13.48;89.86;101503.94;5031746;28;20095;-50
2021/08/03 05:51:05;;;;;;;3.05;0.98;;;;;;;13.57;89.65;101504.94;5030674;28;20042;-54
2021/08/03 05:53:33;;;;;;;2.83;1.10;;;;;;;13.67;89.21;101501.94;5030458;28;20423;-50
2021/08/03 05:56:01;;;;;;;2.35;0.93;;;;;;;13.76;89.08;101507.72;5031216;28;20084;-53
2021/08/03 05:58:29;;;;;;;1.80;0.82;;;;;;;13.86;88.86;101498.28;5031943;28;20076;-52
2021/08/03 06:00:58;;;;;;;2.90;1.20;;;;;;;13.97;88.59;101506.25;5031935;28;20064;-50
2021/08/03 06:03:26;;;;;;;2.75;0.98;;;;;;;14.09;88.22;101515.00;5020167;28;20519;-50
2021/08/03 06:05:54;;;;;;;2.85;1.00;;;;;;;14.17;87.58;101521.91;5031518;28;20118;-52
2021/08/03 06:08:25;;;;;;;2.78;1.15;;;;;;;14.27;87.42;101520.88;5031071;28;20431;-52
2021/08/03 06:10:54;;;;;;;4.18;0.90;;;;;;;14.40;87.29;101520.06;5030940;28;20049;-51
2021/08/03 06:13:24;;;;;;;2.08;0.90;;;;;;;14.54;87.13;101520.97;5031353;28;20045;-51
2021/08/03 06:15:53;;;;;;;2.05;1.15;;;;;;;14.67;87.48;101514.53;5031505;28;20151;-52
2021/08/03 06:18:29;;;;;;;4.88;1.60;;;;;;;14.83;87.50;101521.50;5030656;28;20423;-53
2021/08/03 06:20:57;;;;;;;2.78;1.50;;;;;;;14.99;87.42;101526.81;5031381;28;20631;-50
2021/08/03 06:23:26;;;;;;;3.08;1.63;;;;;;;15.13;87.26;101519.22;5031000;28;20077;-49
2021/08/03 06:25:57;;;;;;;3.50;2.08;;;;;;;15.28;87.22;101516.06;5031026;28;20060;-51
2021/08/03 06:28:26;;;;;;;3.58;1.40;;;;;;;15.46;87.19;101517.91;5030894;28;20168;-50
2021/08/03 06:30:54;;;;;;;3.38;1.40;;;;;;;15.65;87.00;101517.78;5029888;28;20049;-53
2021/08/03 06:33:24;;;;;;;2.25;1.05;;;;;;;15.84;86.87;101518.44;5030884;28;20053;-50
2021/08/03 06:35:53;;;;;;;1.92;0.80;;;;;;;16.01;86.42;101503.66;5030461;28;20404;-52
2021/08/03 06:38:20;;;;;;;3.67;0.93;;;;;;;16.13;85.78;101509.56;5029728;28;20057;-51
2021/08/03 06:40:55;;;;;;;2.63;1.00;;;;;;;16.30;85.34;101517.28;5026447;28;20514;-50
2021/08/03 06:43:25;;;;;;;2.78;0.90;;;;;;;16.46;84.54;101514.88;5030901;28;20045;-53
2021/08/03 06:45:57;;;;;;;3.40;0.90;;;;;;;16.64;83.91;101516.66;5030065;28;20510;-51
2021/08/03 06:48:31;;;;;;;1.63;0.70;;;;;;;16.81;83.35;101513.91;5023501;28;20092;-53
2021/08/03 06:51:04;;;;;;;1.60;0.80;;;;;;;16.96;82.28;101512.69;5028991;28;20053;-54
2021/08/03 06:53:32;;;;;;;1.70;0.80;;;;;;;17.11;81.69;101514.22;5022680;28;20050;-53
2021/08/03 06:56:02;;;;;;;2.40;0.80;;;;;;;17.27;80.80;101515.41;5030675;28;20049;-48
2021/08/03 06:58:36;;;;;;;2.67;1.00;;;;;;;17.39;80.03;101518.41;5030645;28;20069;-49
2021/08/03 07:01:04;;;;;;;1.98;0.93;;;;;;;17.53;78.96;101516.28;5030320;28;20132;-49
2021/08/03 07:03:39;;;;;;;3.25;1.00;;;;;;;17.67;78.46;101518.16;5030683;28;20049;-52
2021/08/03 07:06:09;;;;;;;1.60;0.80;;;;;;;17.81;78.09;101514.00;5027469;28;20049;-49
2021/08/03 07:08:38;;;;;;;2.58;1.00;;;;;;;17.95;76.68;101516.66;5030444;28;20052;-53
2021/08/03 07:11:07;;;;;;;2.33;1.10;;;;;;;18.07;75.92;101521.63;5030202;28;20491;-48
2021/08/03 07:13:38;;;;;;;2.05;1.00;;;;;;;18.20;75.08;101523.44;5029720;28;20104;-52
2021/08/03 07:16:06;;;;;;;2.38;1.00;;;;;;;18.31;74.04;101510.63;5029355;28;20038;-50
2021/08/03 07:18:36;;;;;;;2.67;0.95;;;;;;;18.44;73.59;101511.59;5030577;28;20068;-55
2021/08/03 07:21:05;;;;;;;1.85;0.90;;;;;;;18.60;73.58;101509.91;5019489;28;20166;-53
2021/08/03 07:23:36;;;;;;;1.30;0.70;;;;;;;18.74;72.32;101513.38;5029913;28;20041;-50
2021/08/03 07:26:04;;;;;;;1.90;0.90;;;;;;;18.81;71.79;101513.66;5030505;28;20053;-50
2021/08/03 07:28:32;;;;;;;1.95;0.95;;;;;;;18.86;70.61;101516.28;5029989;28;20085;-48
2021/08/03 07:31:00;;;;;;;2.08;0.80;;;;;;;18.89;70.61;101518.44;5030167;28;20136;-54
2021/08/03 07:33:28;;;;;;;1.67;0.70;;;;;;;18.97;70.10;101518.75;5030611;28;20045;-49
2021/08/03 07:35:57;;;;;;;1.92;0.80;;;;;;;18.99;69.20;101516.38;5028635;28;20548;-49
2021/08/03 07:38:25;;;;;;;2.13;0.90;;;;;;;18.99;69.37;101522.88;5030840;28;20428;-54
2021/08/03 07:40:52;;;;;;;2.88;0.88;;;;;;;19.04;69.55;101513.38;5029533;28;20041;-56
2021/08/03 07:43:20;;;;;;;1.90;0.93;;;;;;;19.00;69.06;101524.53;5029831;28;20115;-55
2021/08/03 07:45:49;;;;;;;1.88;0.85;;;;;;;19.03;69.19;101526.69;5032580;28;20050;-54
2021/08/03 07:48:17;;;;;;;4.20;0.80;;;;;;;19.14;69.28;101515.84;5032514;28;20164;-56
2021/08/03 07:50:45;;;;;;;1.95;1.00;;;;;;;19.31;68.84;101523.38;5032738;28;20045;-58
2021/08/03 07:53:15;;;;;;;2.35;0.95;;;;;;;19.46;67.95;101519.94;5032986;28;20049;-55
2021/08/03 07:55:43;;;;;;;1.80;0.73;;;;;;;19.60;67.00;101520.53;5032716;28;20128;-55
2021/08/03 07:58:11;;;;;;;3.05;0.93;;;;;;;19.72;65.90;101512.13;5033831;28;20099;-54
2021/08/03 08:00:38;;;;;;;1.83;0.88;;;;;;;19.81;65.68;101514.88;5032670;28;20057;-55
2021/08/03 08:03:07;;;;;;;2.25;0.90;;;;;;;19.95;65.15;101516.28;5033390;28;20079;-51
2021/08/03 08:05:34;;;;;;;1.63;0.80;;;;;;;20.08;64.26;101516.31;5033914;28;20037;-51
2021/08/03 08:08:07;;;;;;;2.97;0.70;;;;;;;20.18;63.64;101518.75;5034191;28;20058;-54
2021/08/03 08:10:36;;;;;;;2.05;0.75;;;;;;;20.27;62.91;101513.78;5033267;28;20539;-56
2021/08/03 08:13:04;;;;;;;2.15;0.73;;;;;;;20.34;62.24;101508.41;5033476;28;20099;-53
2021/08/03 08:15:35;;;;;;;3.55;0.85;;;;;;;20.44;61.75;101515.66;5033569;28;20128;-53
2021/08/03 08:18:05;;;;;;;1.95;0.80;;;;;;;20.54;61.35;101507.53;5033049;28;20083;-52
2021/08/03 08:20:33;;;;;;;1.60;0.80;;;;;;;20.63;60.93;101501.75;5033470;28;20411;-53
2021/08/03 08:23:01;;;;;;;1.52;0.70;;;;;;;20.69;60.16;101505.19;5033345;28;20107;-55
2021/08/03 08:25:29;;;;;;;1.95;0.82;;;;;;;20.79;60.16;101499.88;5033090;28;20081;-52
2021/08/03 08:27:59;;;;;;;1.70;0.80;;;;;;;20.85;59.66;101498.47;5032208;28;20053;-54
2021/08/03 08:30:27;;;;;;;3.20;0.80;;;;;;;20.97;59.53;101489.97;5065490;28;20060;-51
2021/08/03 08:32:55;;;;;;;5.80;1.00;;;;;;;21.08;58.75;101480.97;5033411;28;20053;-58
2021/08/03 08:35:36;;;;;;;2.10;0.70;;;;;;;21.14;58.96;101485.25;5022721;28;20115;-51
2021/08/03 08:38:04;;;;;;;1.77;0.80;;;;;;;21.24;58.27;101491.28;5032545;28;20480;-52
2021/08/03 08:40:32;;;;;;;2.35;0.73;;;;;;;21.39;57.80;101489.72;5032978;28;20041;-56
2021/08/03 08:43:02;;;;;;;2.60;0.77;;;;;;;21.50;58.54;101496.56;5033316;28;20456;-56
2021/08/03 08:45:31;;;;;;;1.08;0.50;;;;;;;21.55;56.63;101493.50;5032927;28;20045;-54
2021/08/03 08:47:59;;;;;;;1.70;0.60;;;;;;;21.62;56.33;101487.19;5033273;28;20057;-54
2021/08/03 08:50:27;;;;;;;2.28;0.70;;;;;;;21.66;56.19;101490.97;5032942;28;20045;-54
2021/08/03 08:52:56;;;;;;;1.70;0.55;;;;;;;21.49;54.94;101489.25;5032453;28;20073;-53
2021/08/03 08:55:25;;;;;;;1.95;0.50;;;;;;;21.51;54.67;101500.25;5032510;28;20065;-49
2021/08/03 08:57:53;;;;;;;1.50;0.50;;;;;;;21.65;54.73;101492.97;5033127;28;20049;-56
2021/08/03 09:00:23;;;;;;;1.98;0.70;;;;;;;21.82;53.90;101500.38;5032304;28;20053;-55
2021/08/03 09:02:53;;;;;;;1.92;0.55;;;;;;;21.95;53.85;101501.19;5032804;28;20084;-52
2021/08/03 09:05:29;;;;;;;1.60;0.70;;;;;;;22.08;53.94;101490.63;5032679;28;20060;-53
2021/08/03 09:07:58;;;;;;;2.05;0.70;;;;;;;22.16;53.79;101495.34;5032469;28;20050;-50
2021/08/03 09:10:28;;;;;;;1.67;0.60;;;;;;;22.29;53.79;101486.38;5032243;28;20057;-52
2021/08/03 09:13:03;;;;;;;3.65;0.70;;;;;;;22.46;52.74;101488.03;5032074;28;20060;-53
2021/08/03 09:15:35;;;;;;;1.35;0.60;;;;;;;22.48;51.25;101484.84;5032694;28;20136;-54
2021/08/03 09:18:15;;;;;;;3.13;0.70;;;;;;;22.21;51.03;101484.50;5032260;28;20403;-54
2021/08/03 09:20:45;;;;;;;1.15;0.47;;;;;;;22.32;51.99;101487.66;5031763;28;20478;-55
2021/08/03 09:23:14;;;;;;;1.10;0.50;;;;;;;22.61;51.87;101483.56;5032218;28;20558;-52
2021/08/03 09:25:53;;;;;;;1.33;0.70;;;;;;;22.80;47.62;101491.41;5032219;28;20045;-57
2021/08/03 09:28:20;;;;;;;2.25;0.60;;;;;;;22.80;49.58;101492.22;5031955;28;20060;-55
2021/08/03 09:30:50;;;;;;;1.90;0.70;;;;;;;23.00;50.33;101490.28;5032549;28;20053;-51
2021/08/03 09:33:25;;;;;;;2.50;0.70;;;;;;;23.24;47.41;101487.22;5031987;28;20049;-56
2021/08/03 09:35:55;;;;;;;1.38;0.50;;;;;;;23.47;48.79;101492.22;5031674;28;20052;-55
2021/08/03 09:38:23;;;;;;;2.13;0.70;;;;;;;23.74;46.67;101490.44;5031875;28;20088;-54
2021/08/03 09:40:52;;;;;;;1.60;0.70;;;;;;;24.00;45.51;101488.56;5031421;28;20417;-53
2021/08/03 09:43:28;;;;;;;3.05;0.60;;;;;;;24.32;44.60;101500.66;5032079;28;20088;-53
2021/08/03 09:46:00;;;;;;;2.08;0.80;;;;;;;24.61;44.84;101501.19;5022015;28;20522;-55
2021/08/03 09:48:30;;;;;;;2.45;0.63;;;;;;;24.95;43.30;101488.81;5031688;28;20095;-54
2021/08/03 09:51:05;;;;;;;1.90;0.80;;;;;;;25.00;42.18;101493.34;5031831;28;20041;-53
2021/08/03 09:53:37;;;;;;;2.75;0.70;;;;;;;25.13;41.87;101486.25;5031814;28;20045;-55
2021/08/03 09:56:06;;;;;;;1.60;0.70;;;;;;;25.22;41.76;101488.81;5031260;28;20364;-57
2021/08/03 09:58:34;;;;;;;1.95;0.82;;;;;;;25.18;41.69;101482.25;5031911;28;20124;-52
2021/08/03 10:01:26;;;;;;;2.53;0.80;;;;;;;24.83;39.00;101477.53;5031552;28;20103;-54
2021/08/03 10:03:57;;;;;;;1.88;0.60;;;;;;;24.73;41.82;101483.91;5023264;28;20044;-51
2021/08/03 10:06:26;;;;;;;2.38;0.60;;;;;;;25.01;42.12;101478.69;5030754;28;20414;-53
2021/08/03 10:08:55;;;;;;;1.92;0.82;;;;;;;25.37;41.33;101482.13;5032099;28;20051;-53
2021/08/03 10:11:24;;;;;;;2.22;0.80;;;;;;;25.53;40.92;101477.06;5031010;28;20045;-50
2021/08/03 10:13:53;;;;;;;1.80;0.88;;;;;;;25.61;40.45;101470.22;5020516;28;20054;-55
2021/08/03 10:16:23;;;;;;;1.95;0.70;;;;;;;25.80;39.68;101485.59;5030444;28;20717;-59
2021/08/03 10:18:53;;;;;;;2.08;0.80;;;;;;;26.01;40.51;101475.25;5031926;28;20057;-51
2021/08/03 10:21:29;;;;;;;2.90;0.75;;;;;;;26.30;39.19;101482.19;5031270;28;20264;-55
2021/08/03 10:24:11;;;;;;;3.05;0.95;;;;;;;26.35;37.35;101484.69;5030886;28;20053;-50
2021/08/03 10:26:39;;;;;;;1.90;0.80;;;;;;;26.20;38.29;101473.44;5030687;28;20053;-51
2021/08/03 10:29:26;;;;;;;1.95;0.80;;;;;;;26.23;37.24;101475.50;5030795;28;20570;-51
2021/08/03 10:31:56;;;;;;;2.47;1.17;;;;;;;26.01;37.83;101483.84;5026825;28;20075;-55
2021/08/03 10:35:01;;;;;;;2.80;1.00;;;;;;;25.16;37.04;101484.66;5030788;28;20883;-56
2021/08/03 10:38:07;;;;;;;1.85;0.80;;;;;;;24.87;39.03;101480.44;5029068;28;20095;-53
2021/08/03 10:41:01;;;;;;;2.05;0.80;;;;;;;24.83;40.27;101485.28;5030611;28;20042;-52
2021/08/03 10:43:54;;;;;;;2.08;0.70;;;;;;;24.61;39.80;101484.88;5030853;28;20041;-58
2021/08/03 10:46:42;;;;;;;1.75;0.77;;;;;;;24.44;40.28;101478.84;5030735;28;20519;-54
2021/08/03 10:49:13;;;;;;;2.70;0.80;;;;;;;24.42;40.41;101481.25;5030945;28;20057;-54
2021/08/03 10:51:48;;;;;;;2.13;0.80;;;;;;;24.57;38.41;101481.16;5030474;28;20060;-58
2021/08/03 10:54:18;;;;;;;1.77;0.60;;;;;;;24.42;40.56;101482.09;5030749;28;20491;-56
2021/08/03 10:57:21;;;;;;;1.50;0.50;;;;;;;24.33;37.19;101478.66;5031178;28;20073;-54
2021/08/03 11:00:04;;;;;;;1.88;0.77;;;;;;;24.25;39.70;101474.00;5029226;28;20125;-51
2021/08/03 11:02:46;;;;;;;1.63;0.63;;;;;;;24.15;40.09;101483.16;5030786;28;20058;-54
2021/08/03 11:05:34;;;;;;;2.88;0.63;;;;;;;24.18;39.26;101476.72;5030169;28;20050;-56
2021/08/03 11:08:42;;;;;;;1.92;0.63;;;;;;;24.29;37.72;101478.59;5029951;28;20045;-53
2021/08/03 11:11:12;;;;;;;1.50;0.82;;;;;;;24.41;38.19;101479.59;5022627;28;20506;-52
2021/08/03 11:13:46;;;;;;;1.65;0.93;;;;;;;24.13;37.47;101479.84;5028972;28;20050;-54
2021/08/03 11:16:48;;;;;;;3.03;0.90;;;;;;;23.76;38.26;101476.66;5030495;28;20049;-54
2021/08/03 11:19:32;;;;;;;1.50;0.85;;;;;;;23.61;39.25;101482.00;5029293;28;20080;-51
2021/08/03 11:22:03;;;;;;;1.75;0.80;;;;;;;23.65;40.53;101474.38;5034463;28;20467;-54
2021/08/03 11:24:37;;;;;;;1.30;0.50;;;;;;;23.55;40.66;101477.81;5034373;28;20045;-50
2021/08/03 11:27:06;;;;;;;2.03;0.60;;;;;;;23.38;41.44;101476.16;5033913;28;20068;-52
2021/08/03 11:29:37;;;;;;;1.42;0.70;;;;;;;23.22;41.47;101469.69;5033005;28;20099;-53
2021/08/03 11:32:06;;;;;;;1.45;0.60;;;;;;;23.11;41.83;101476.34;5034070;28;20499;-51
2021/08/03 11:34:37;;;;;;;1.20;0.60;;;;;;;22.93;42.08;101481.59;5033801;28;20044;-57
2021/08/03 11:37:09;;;;;;;1.70;0.68;;;;;;;22.73;42.69;101482.66;5034199;28;20046;-56
2021/08/03 11:39:39;;;;;;;1.65;0.80;;;;;;;22.61;42.89;101478.69;5023212;28;20050;-52
2021/08/03 11:42:09;;;;;;;1.63;0.60;;;;;;;22.60;43.12;101481.91;5032705;28;20041;-49
2021/08/03 11:44:38;;;;;;;2.30;0.75;;;;;;;22.38;42.66;101476.84;5034294;28;20085;-56